createdAt,value
2024-01-30T00:00:23.285Z,102045.77
2024-01-30T00:03:11.329Z,102043.73
2024-01-30T00:05:39.680Z,102041.51
2024-01-30T00:08:08.026Z,102040.21
2024-01-30T00:10:36.302Z,102042.20
2024-01-30T00:13:04.992Z,102043.52
2024-01-30T00:15:33.933Z,102044.09
2024-01-30T00:18:02.528Z,102043.64
2024-01-30T00:20:33.780Z,102044.22
2024-01-30T00:23:17.406Z,102046.83
2024-01-30T00:25:45.987Z,102047.02
2024-01-30T00:28:14.241Z,102051.02
2024-01-30T00:30:42.325Z,102047.92
2024-01-30T00:33:11.155Z,102050.09
2024-01-30T00:35:39.392Z,102051.84
2024-01-30T00:38:09.315Z,102047.73
2024-01-30T00:40:37.403Z,102045.88
2024-01-30T00:43:05.685Z,102048.52
2024-01-30T00:45:34.151Z,102052.16
2024-01-30T00:48:02.615Z,102053.02
2024-01-30T00:50:31.151Z,102051.77
2024-01-30T00:52:59.479Z,102051.42
2024-01-30T00:55:27.748Z,102048.33
2024-01-30T00:57:55.976Z,102047.80
2024-01-30T01:00:30.316Z,102046.94
2024-01-30T01:02:59.208Z,102047.52
2024-01-30T01:05:28.247Z,102045.77
2024-01-30T01:07:56.358Z,102049.98
2024-01-30T01:10:24.901Z,102053.67
2024-01-30T01:12:53.185Z,102050.47
2024-01-30T01:15:21.237Z,102050.59
2024-01-30T01:17:50.247Z,102050.29
2024-01-30T01:20:18.316Z,102050.52
2024-01-30T01:22:46.679Z,102045.55
2024-01-30T01:25:15.116Z,102042.76
2024-01-30T01:27:44.583Z,102044.95
2024-01-30T01:30:15.866Z,102046.95
2024-01-30T01:32:50.464Z,102043.55
2024-01-30T01:35:18.933Z,102045.51
2024-01-30T01:37:46.997Z,102041.92
2024-01-30T01:40:15.230Z,102038.21
2024-01-30T01:42:43.544Z,102038.30
2024-01-30T01:45:11.711Z,102041.69
2024-01-30T01:47:40.120Z,102040.85
2024-01-30T01:50:09.305Z,102044.72
2024-01-30T01:52:38.602Z,102048.57
2024-01-30T01:55:07.595Z,102049.12
2024-01-30T01:57:36.180Z,102054.20
2024-01-30T02:00:05.699Z,102048.71
2024-01-30T02:02:37.135Z,102048.88
2024-01-30T02:05:05.985Z,102045.64
2024-01-30T02:07:34.220Z,102046.39
2024-01-30T02:10:02.534Z,102045.55
2024-01-30T02:12:31.127Z,102046.92
2024-01-30T02:14:59.345Z,102051.30
2024-01-30T02:17:27.692Z,102050.00
2024-01-30T02:19:55.932Z,102046.93
2024-01-30T02:22:25.308Z,102048.33
2024-01-30T02:24:53.449Z,102046.27
2024-01-30T02:27:22.136Z,102047.92
2024-01-30T02:29:50.224Z,102046.42
2024-01-30T02:32:18.323Z,102047.68
2024-01-30T02:34:46.595Z,102049.67
2024-01-30T02:37:14.602Z,102047.78
2024-01-30T02:39:42.865Z,102048.40
2024-01-30T02:42:11.031Z,102048.48
2024-01-30T02:44:39.260Z,102050.30
2024-01-30T02:47:07.895Z,102051.46
2024-01-30T02:49:36.162Z,102052.84
2024-01-30T02:52:04.912Z,102049.22
2024-01-30T02:54:33.064Z,102051.00
2024-01-30T02:57:01.228Z,102050.81
2024-01-30T02:59:29.611Z,102054.98
2024-01-30T03:01:57.775Z,102057.57
2024-01-30T03:04:26.155Z,102057.91
2024-01-30T03:06:54.586Z,102059.73
2024-01-30T03:09:22.923Z,102056.36
2024-01-30T03:11:51.088Z,102059.05
2024-01-30T03:14:19.171Z,102057.70
2024-01-30T03:16:47.345Z,102050.25
2024-01-30T03:19:15.723Z,102049.76
2024-01-30T03:21:44.162Z,102051.52
2024-01-30T03:24:12.243Z,102047.08
2024-01-30T03:26:40.346Z,102043.82
2024-01-30T03:29:08.845Z,102044.39
2024-01-30T03:31:37.301Z,102044.77
2024-01-30T03:34:05.359Z,102043.95
2024-01-30T03:36:36.615Z,102046.55
2024-01-30T03:39:04.681Z,102046.77
2024-01-30T03:41:33.107Z,102048.17
2024-01-30T03:44:01.388Z,102050.14
2024-01-30T03:46:29.563Z,102046.54
2024-01-30T03:48:57.772Z,102049.16
2024-01-30T03:51:26.084Z,102047.45
2024-01-30T03:53:54.139Z,102047.95
2024-01-30T03:56:22.264Z,102048.98
2024-01-30T03:58:50.258Z,102051.27
2024-01-30T04:01:18.586Z,102051.73
2024-01-30T04:03:47.060Z,102048.84
2024-01-30T04:06:15.623Z,102053.05
2024-01-30T04:08:43.830Z,102051.42
2024-01-30T04:11:11.917Z,102048.08
2024-01-30T04:13:39.874Z,102048.91
2024-01-30T04:16:08.117Z,102051.13
2024-01-30T04:18:36.328Z,102056.02
2024-01-30T04:21:04.565Z,102055.33
2024-01-30T04:23:32.952Z,102052.05
2024-01-30T04:26:01.211Z,102052.95
2024-01-30T04:28:30.090Z,102054.39
2024-01-30T04:30:58.186Z,102056.67
2024-01-30T04:33:26.601Z,102054.86
2024-01-30T04:35:54.659Z,102056.48
2024-01-30T04:38:22.809Z,102060.38
2024-01-30T04:40:50.779Z,102061.61
2024-01-30T04:43:20.428Z,102064.42
2024-01-30T04:45:49.119Z,102068.63
2024-01-30T04:48:17.211Z,102064.99
2024-01-30T04:50:45.516Z,102065.89
2024-01-30T04:53:13.689Z,102063.35
2024-01-30T04:55:42.001Z,102063.58
2024-01-30T04:58:10.303Z,102063.98
2024-01-30T05:00:38.655Z,102062.49
2024-01-30T05:03:06.720Z,102065.88
2024-01-30T05:05:35.419Z,102064.90
2024-01-30T05:08:03.810Z,102071.31
2024-01-30T05:10:32.096Z,102071.86
2024-01-30T05:13:00.352Z,102071.77
2024-01-30T05:15:28.463Z,102071.64
2024-01-30T05:17:56.565Z,102066.42
2024-01-30T05:20:24.829Z,102068.48
2024-01-30T05:22:53.688Z,102066.88
2024-01-30T05:25:21.927Z,102069.14
2024-01-30T05:27:50.997Z,102069.46
2024-01-30T05:30:19.296Z,102068.20
2024-01-30T05:32:47.585Z,102063.63
2024-01-30T05:35:15.833Z,102064.98
2024-01-30T05:37:43.987Z,102065.13
2024-01-30T05:40:12.769Z,102066.48
2024-01-30T05:42:41.177Z,102071.16
2024-01-30T05:45:09.883Z,102073.44
2024-01-30T05:47:38.053Z,102069.31
2024-01-30T05:50:07.629Z,102072.50
2024-01-30T05:52:35.987Z,102068.73
2024-01-30T05:55:04.734Z,102069.45
2024-01-30T05:57:33.297Z,102068.56
2024-01-30T06:00:01.350Z,102066.94
2024-01-30T06:02:29.480Z,102068.44
2024-01-30T06:04:57.808Z,102069.25
2024-01-30T06:07:26.203Z,102070.61
2024-01-30T06:09:54.811Z,102072.52
2024-01-30T06:12:23.142Z,102073.52
2024-01-30T06:14:51.234Z,102073.66
2024-01-30T06:17:19.481Z,102070.83
2024-01-30T06:19:47.629Z,102072.48
2024-01-30T06:22:17.131Z,102074.16
2024-01-30T06:24:46.487Z,102079.86
2024-01-30T06:27:15.091Z,102082.98
2024-01-30T06:29:44.747Z,102084.56
2024-01-30T06:32:12.950Z,102085.48
2024-01-30T06:34:42.730Z,102087.25
2024-01-30T06:37:11.106Z,102089.16
2024-01-30T06:39:39.188Z,102082.58
2024-01-30T06:42:07.578Z,102083.25
2024-01-30T06:44:36.178Z,102081.81
2024-01-30T06:47:04.809Z,102080.21
2024-01-30T06:49:32.928Z,102079.64
2024-01-30T06:52:01.147Z,102077.31
2024-01-30T06:54:29.571Z,102083.16
2024-01-30T06:56:58.040Z,102084.83
2024-01-30T06:59:26.523Z,102083.41
2024-01-30T07:01:54.962Z,102085.24
2024-01-30T07:04:23.420Z,102084.45
2024-01-30T07:06:51.702Z,102087.40
2024-01-30T07:09:20.131Z,102090.20
2024-01-30T07:11:48.219Z,102087.98
2024-01-30T07:14:16.382Z,102096.67
2024-01-30T07:16:45.168Z,102094.73
2024-01-30T07:19:13.466Z,102098.40
2024-01-30T07:21:42.059Z,102096.98
2024-01-30T07:24:10.396Z,102100.13
2024-01-30T07:26:38.672Z,102100.31
2024-01-30T07:29:06.859Z,102100.83
2024-01-30T07:31:35.039Z,102100.29
2024-01-30T07:34:03.871Z,102098.64
2024-01-30T07:36:32.290Z,102098.59
2024-01-30T07:39:00.617Z,102098.96
2024-01-30T07:41:28.868Z,102103.38
2024-01-30T07:43:57.216Z,102103.77
2024-01-30T07:46:25.567Z,102102.63
2024-01-30T07:48:55.419Z,102101.39
2024-01-30T07:51:23.988Z,102100.20
2024-01-30T07:53:52.188Z,102103.87
2024-01-30T07:56:20.545Z,102101.27
2024-01-30T07:58:48.739Z,102103.16
2024-01-30T08:01:17.439Z,102102.98
2024-01-30T08:03:45.926Z,102100.40
2024-01-30T08:06:14.242Z,102096.88
2024-01-30T08:08:42.446Z,102101.56
2024-01-30T08:11:10.808Z,102100.08
2024-01-30T08:13:38.799Z,102100.66
2024-01-30T08:16:07.433Z,102094.96
2024-01-30T08:18:35.678Z,102095.14
2024-01-30T08:21:04.273Z,102095.70
2024-01-30T08:23:32.299Z,102097.31
2024-01-30T08:26:00.586Z,102093.53
2024-01-30T08:28:29.874Z,102101.35
2024-01-30T08:30:58.539Z,102099.90
2024-01-30T08:33:27.167Z,102098.61
2024-01-30T08:35:55.542Z,102091.58
2024-01-30T08:38:23.804Z,102094.62
2024-01-30T08:40:52.223Z,102092.53
2024-01-30T08:43:20.547Z,102092.60
2024-01-30T08:45:48.947Z,102093.45
2024-01-30T08:48:17.226Z,102088.20
2024-01-30T08:50:45.934Z,102088.85
2024-01-30T08:53:14.181Z,102090.19
2024-01-30T08:55:42.662Z,102090.72
2024-01-30T08:58:11.088Z,102094.27
2024-01-30T09:00:39.250Z,102096.23
2024-01-30T09:03:07.932Z,102095.96
2024-01-30T09:05:36.277Z,102097.80
2024-01-30T09:08:05.139Z,102098.80
2024-01-30T09:10:33.272Z,102099.80
2024-01-30T09:13:01.751Z,102099.69
2024-01-30T09:15:29.933Z,102100.17
2024-01-30T09:17:58.082Z,102101.75
2024-01-30T09:20:26.089Z,102096.36
2024-01-30T09:22:54.232Z,102094.54
2024-01-30T09:25:22.565Z,102094.89
2024-01-30T09:27:51.080Z,102097.72
2024-01-30T09:30:19.364Z,102092.77
2024-01-30T09:32:47.660Z,102092.31
2024-01-30T09:35:16.180Z,102086.63
2024-01-30T09:37:44.808Z,102082.11
2024-01-30T09:40:13.435Z,102079.27
2024-01-30T09:42:44.047Z,102081.39
2024-01-30T09:45:14.981Z,102077.76
2024-01-30T09:47:44.918Z,102071.73
2024-01-30T09:50:17.238Z,102075.83
2024-01-30T09:52:46.106Z,102069.17
2024-01-30T09:55:14.712Z,102066.44
2024-01-30T09:57:45.067Z,102063.02
2024-01-30T10:00:13.524Z,102063.70
2024-01-30T10:02:42.404Z,102055.94
2024-01-30T10:05:11.034Z,102054.11
2024-01-30T10:07:39.538Z,102053.46
2024-01-30T10:10:08.459Z,102047.65
2024-01-30T10:12:36.744Z,102049.06
2024-01-30T10:15:09.528Z,102046.33
2024-01-30T10:17:39.585Z,102041.54
2024-01-30T10:20:09.190Z,102041.45
2024-01-30T10:22:37.627Z,102036.23
2024-01-30T10:25:07.023Z,102029.68
2024-01-30T10:27:35.377Z,102029.13
2024-01-30T10:30:05.417Z,102024.16
2024-01-30T10:32:33.735Z,102019.20
2024-01-30T10:35:02.265Z,102019.32
2024-01-30T10:37:33.409Z,102021.45
2024-01-30T10:40:07.829Z,102010.34
2024-01-30T10:42:38.519Z,102008.23
2024-01-30T10:45:14.027Z,102000.96
2024-01-30T10:47:50.069Z,101997.23
2024-01-30T10:50:18.609Z,101991.83
2024-01-30T10:52:47.965Z,101993.88
2024-01-30T10:55:17.311Z,101993.70
2024-01-30T10:57:45.529Z,101993.01
2024-01-30T11:00:18.910Z,101989.45
2024-01-30T11:02:48.850Z,101983.94
2024-01-30T11:05:30.470Z,101980.61
2024-01-30T11:08:12.442Z,101980.95
2024-01-30T11:10:49.986Z,101981.00
2024-01-30T11:13:20.676Z,101971.11
2024-01-30T11:15:49.841Z,101962.36
2024-01-30T11:18:31.008Z,101957.36
2024-01-30T11:21:03.435Z,101955.10
2024-01-30T11:23:32.379Z,101947.84
2024-01-30T11:26:01.689Z,101942.42
2024-01-30T11:28:38.773Z,101933.59
2024-01-30T11:31:13.020Z,101928.79
2024-01-30T11:33:41.269Z,101920.20
2024-01-30T11:36:10.254Z,101919.91
2024-01-30T11:38:38.331Z,101911.45
2024-01-30T11:41:07.441Z,101908.65
2024-01-30T11:43:36.612Z,101906.91
2024-01-30T11:46:08.698Z,101898.83
2024-01-30T11:48:37.369Z,101896.32
2024-01-30T11:51:05.692Z,101890.49
2024-01-30T11:53:34.016Z,101892.29
2024-01-30T11:56:04.982Z,101885.35
2024-01-30T11:58:33.231Z,101886.23
2024-01-30T12:01:02.086Z,101880.44
2024-01-30T12:03:30.297Z,101874.85
2024-01-30T12:06:00.153Z,101867.60
2024-01-30T12:08:29.364Z,101867.13
2024-01-30T12:11:00.138Z,101864.93
2024-01-30T12:13:33.129Z,101864.92
2024-01-30T12:16:03.229Z,101864.54
2024-01-30T12:18:32.150Z,101858.62
2024-01-30T12:21:01.798Z,101858.66
2024-01-30T12:23:30.821Z,101858.92
2024-01-30T12:25:59.218Z,101851.91
2024-01-30T12:28:28.256Z,101844.34
2024-01-30T12:31:04.492Z,101842.27
2024-01-30T12:33:33.528Z,101842.92
2024-01-30T12:36:06.241Z,101843.33
2024-01-30T12:38:34.607Z,101836.41
2024-01-30T12:41:03.132Z,101831.95
2024-01-30T12:43:37.792Z,101830.15
2024-01-30T12:46:08.826Z,101829.63
2024-01-30T12:48:37.363Z,101828.02
2024-01-30T12:51:06.227Z,101827.68
2024-01-30T12:53:34.673Z,101824.71
2024-01-30T12:56:02.908Z,101823.68
2024-01-30T12:58:31.297Z,101819.56
2024-01-30T13:00:59.977Z,101819.19
2024-01-30T13:03:28.532Z,101817.25
2024-01-30T13:05:57.058Z,101815.69
2024-01-30T13:08:25.587Z,101814.02
2024-01-30T13:10:54.144Z,101815.80
2024-01-30T13:13:22.523Z,101811.71
2024-01-30T13:15:50.627Z,101811.23
2024-01-30T13:18:19.076Z,101810.49
2024-01-30T13:20:47.633Z,101806.48
2024-01-30T13:23:15.995Z,101806.95
2024-01-30T13:25:44.106Z,101806.58
2024-01-30T13:28:12.160Z,101809.16
2024-01-30T13:30:40.442Z,101809.41
2024-01-30T13:33:08.730Z,101805.48
2024-01-30T13:35:36.961Z,101799.36
2024-01-30T13:38:05.337Z,101803.19
2024-01-30T13:40:33.846Z,101802.67
2024-01-30T13:43:02.413Z,101803.02
2024-01-30T13:45:30.942Z,101800.53
2024-01-30T13:48:00.419Z,101803.89
2024-01-30T13:50:29.597Z,101801.29
2024-01-30T13:52:57.960Z,101799.96
2024-01-30T13:55:27.285Z,101804.28
2024-01-30T13:57:57.260Z,101801.64
2024-01-30T14:00:27.000Z,101801.60
2024-01-30T14:02:56.279Z,101798.80
2024-01-30T14:05:25.215Z,101801.83
2024-01-30T14:07:53.970Z,101795.66
2024-01-30T14:10:22.714Z,101794.11
2024-01-30T14:12:50.671Z,101791.73
2024-01-30T14:15:27.578Z,101784.91
2024-01-30T14:17:57.961Z,101784.75
2024-01-30T14:20:27.888Z,101783.68
2024-01-30T14:22:57.598Z,101783.05
2024-01-30T14:25:26.180Z,101782.33
2024-01-30T14:27:54.887Z,101780.34
2024-01-30T14:30:24.017Z,101779.05
2024-01-30T14:32:52.377Z,101774.48
2024-01-30T14:35:21.786Z,101774.73
2024-01-30T14:37:51.463Z,101778.08
2024-01-30T14:40:21.116Z,101776.73
2024-01-30T14:42:49.739Z,101774.59
2024-01-30T14:45:18.111Z,101770.96
2024-01-30T14:47:47.184Z,101770.41
2024-01-30T14:50:18.069Z,101769.94
2024-01-30T14:52:47.006Z,101765.34
2024-01-30T14:55:15.674Z,101768.04
2024-01-30T14:57:46.360Z,101768.41
2024-01-30T15:00:17.044Z,101770.73
2024-01-30T15:02:48.179Z,101762.86
2024-01-30T15:05:16.683Z,101759.73
2024-01-30T15:07:45.728Z,101764.55
2024-01-30T15:10:14.465Z,101764.89
2024-01-30T15:12:42.758Z,101767.54
2024-01-30T15:15:11.793Z,101768.30
2024-01-30T15:17:40.810Z,101764.95
2024-01-30T15:20:10.232Z,101765.10
2024-01-30T15:22:39.125Z,101764.66
2024-01-30T15:25:07.968Z,101775.39
2024-01-30T15:27:36.127Z,101779.56
2024-01-30T15:30:05.688Z,101779.36
2024-01-30T15:32:34.123Z,101784.45
2024-01-30T15:35:05.880Z,101795.88
2024-01-30T15:37:34.760Z,101795.48
2024-01-30T15:40:03.946Z,101805.69
2024-01-30T15:42:32.272Z,101808.27
2024-01-30T15:45:00.446Z,101812.54
2024-01-30T15:47:28.849Z,101814.48
2024-01-30T15:49:57.142Z,101827.83
2024-01-30T15:52:25.568Z,101824.04
2024-01-30T15:54:53.840Z,101833.70
2024-01-30T15:57:22.166Z,101837.66
2024-01-30T15:59:50.339Z,101842.48
2024-01-30T16:02:19.718Z,101850.77
2024-01-30T16:04:48.599Z,101852.89
2024-01-30T16:07:19.759Z,101847.84
2024-01-30T16:09:48.110Z,101849.53
2024-01-30T16:12:16.412Z,101854.11
2024-01-30T16:14:44.794Z,101862.38
2024-01-30T16:17:13.821Z,101861.33
2024-01-30T16:19:42.357Z,101861.38
2024-01-30T16:22:10.644Z,101862.11
2024-01-30T16:24:38.830Z,101860.20
2024-01-30T16:27:07.314Z,101866.07
2024-01-30T16:29:37.010Z,101865.88
2024-01-30T16:32:05.682Z,101863.73
2024-01-30T16:34:33.801Z,101869.56
2024-01-30T16:37:02.372Z,101862.52
2024-01-30T16:39:31.430Z,101869.48
2024-01-30T16:41:59.942Z,101871.88
2024-01-30T16:44:28.312Z,101870.16
2024-01-30T16:46:56.590Z,101868.67
2024-01-30T16:49:25.163Z,101870.42
2024-01-30T16:51:53.367Z,101869.63
2024-01-30T16:54:21.616Z,101865.84
2024-01-30T16:56:49.898Z,101870.07
2024-01-30T16:59:20.045Z,101869.48
2024-01-30T17:01:51.183Z,101865.63
2024-01-30T17:04:22.695Z,101869.87
2024-01-30T17:06:51.888Z,101865.64
2024-01-30T17:09:20.026Z,101871.83
2024-01-30T17:11:48.249Z,101874.12
2024-01-30T17:14:18.124Z,101880.13
2024-01-30T17:16:50.237Z,101882.20
2024-01-30T17:19:23.082Z,101883.09
2024-01-30T17:21:51.839Z,101884.06
2024-01-30T17:24:21.868Z,101880.28
2024-01-30T17:26:53.970Z,101880.33
2024-01-30T17:29:22.574Z,101880.90
2024-01-30T17:31:51.491Z,101879.34
2024-01-30T17:34:19.927Z,101878.98
2024-01-30T17:36:48.119Z,101880.50
2024-01-30T17:39:16.384Z,101881.23
2024-01-30T17:41:44.971Z,101877.30
2024-01-30T17:44:14.796Z,101879.08
2024-01-30T17:46:43.504Z,101882.02
2024-01-30T17:49:12.042Z,101878.69
2024-01-30T17:51:41.863Z,101876.20
2024-01-30T17:54:10.050Z,101872.62
2024-01-30T17:56:38.194Z,101879.49
2024-01-30T17:59:06.448Z,101880.63
2024-01-30T18:01:35.066Z,101879.39
2024-01-30T18:04:03.431Z,101880.05
2024-01-30T18:06:32.053Z,101881.63
2024-01-30T18:09:00.231Z,101876.89
2024-01-30T18:11:28.597Z,101878.73
2024-01-30T18:13:57.380Z,101879.90
2024-01-30T18:16:25.997Z,101877.48
2024-01-30T18:18:54.337Z,101876.86
2024-01-30T18:21:22.874Z,101878.38
2024-01-30T18:23:50.976Z,101875.39
2024-01-30T18:26:19.049Z,101874.05
2024-01-30T18:28:47.093Z,101875.98
2024-01-30T18:31:16.509Z,101867.67
2024-01-30T18:33:46.937Z,101866.23
2024-01-30T18:36:15.441Z,101866.20
2024-01-30T18:38:43.556Z,101862.98
2024-01-30T18:41:11.894Z,101862.45
2024-01-30T18:43:40.102Z,101860.27
2024-01-30T18:46:10.019Z,101855.80
2024-01-30T18:48:39.015Z,101855.14
2024-01-30T18:51:07.794Z,101849.78
2024-01-30T18:53:35.963Z,101855.44
2024-01-30T18:56:06.743Z,101856.71
2024-01-30T18:58:34.767Z,101857.56
2024-01-30T19:01:03.970Z,101853.51
2024-01-30T19:03:32.990Z,101852.65
2024-01-30T19:06:01.686Z,101851.39
2024-01-30T19:08:30.330Z,101851.20
2024-01-30T19:10:58.626Z,101850.98
2024-01-30T19:13:26.914Z,101847.41
2024-01-30T19:15:56.221Z,101847.89
2024-01-30T19:18:24.780Z,101845.58
2024-01-30T19:20:53.317Z,101848.73
2024-01-30T19:23:21.688Z,101851.28
2024-01-30T19:25:50.139Z,101852.27
2024-01-30T19:28:18.421Z,101851.67
2024-01-30T19:30:46.752Z,101855.32
2024-01-30T19:33:14.927Z,101851.46
2024-01-30T19:35:43.247Z,101849.29
2024-01-30T19:38:14.524Z,101854.30
2024-01-30T19:40:43.629Z,101849.83
2024-01-30T19:43:11.946Z,101848.80
2024-01-30T19:45:40.187Z,101846.44
2024-01-30T19:48:08.997Z,101848.88
2024-01-30T19:50:37.374Z,101846.79
2024-01-30T19:53:05.649Z,101848.23
2024-01-30T19:55:33.938Z,101848.83
2024-01-30T19:58:06.130Z,101848.53
2024-01-30T20:00:34.254Z,101845.36
2024-01-30T20:03:02.424Z,101845.25
2024-01-30T20:05:31.073Z,101841.69
2024-01-30T20:07:59.201Z,101843.48
2024-01-30T20:10:27.622Z,101838.98
2024-01-30T20:12:55.954Z,101841.81
2024-01-30T20:15:24.292Z,101834.38
2024-01-30T20:17:52.741Z,101835.58
2024-01-30T20:20:21.910Z,101836.70
2024-01-30T20:22:50.769Z,101837.14
2024-01-30T20:25:20.347Z,101837.15
2024-01-30T20:27:49.464Z,101835.95
2024-01-30T20:30:19.070Z,101835.19
2024-01-30T20:32:48.323Z,101834.39
2024-01-30T20:35:19.965Z,101834.96
2024-01-30T20:37:50.526Z,101834.52
2024-01-30T20:40:18.885Z,101829.91
2024-01-30T20:42:48.852Z,101830.42
2024-01-30T20:45:21.740Z,101830.45
2024-01-30T20:47:50.720Z,101829.06
2024-01-30T20:50:20.865Z,101829.62
2024-01-30T20:52:49.946Z,101827.13
2024-01-30T20:55:18.449Z,101827.91
2024-01-30T20:57:50.003Z,101825.05
2024-01-30T21:00:19.030Z,101821.43
2024-01-30T21:02:48.915Z,101820.70
2024-01-30T21:05:23.893Z,101820.28
2024-01-30T21:07:54.679Z,101816.27
2024-01-30T21:10:23.376Z,101815.13
2024-01-30T21:12:52.537Z,101813.79
2024-01-30T21:15:20.971Z,101812.60
2024-01-30T21:17:53.882Z,101809.65
2024-01-30T21:20:24.508Z,101807.95
2024-01-30T21:22:55.496Z,101805.02
2024-01-30T21:25:23.875Z,101804.16
2024-01-30T21:27:52.863Z,101804.20
2024-01-30T21:30:22.356Z,101806.46
2024-01-30T21:32:53.861Z,101805.48
2024-01-30T21:35:25.585Z,101805.35
2024-01-30T21:37:59.306Z,101803.35
2024-01-30T21:40:30.116Z,101803.18
2024-01-30T21:42:59.212Z,101804.38
2024-01-30T21:45:27.569Z,101802.77
2024-01-30T21:47:55.824Z,101800.36
2024-01-30T21:50:24.451Z,101800.77
2024-01-30T21:52:53.418Z,101798.40
2024-01-30T21:55:22.144Z,101800.12
2024-01-30T21:57:50.386Z,101800.88
2024-01-30T22:00:19.232Z,101800.84
2024-01-30T22:02:47.808Z,101801.27
2024-01-30T22:05:16.463Z,101800.98
2024-01-30T22:07:44.863Z,101804.84
2024-01-30T22:10:13.746Z,101803.14
2024-01-30T22:12:42.086Z,101805.81
2024-01-30T22:15:14.195Z,101803.77
2024-01-30T22:17:44.819Z,101805.09
2024-01-30T22:20:12.965Z,101804.33
2024-01-30T22:22:41.514Z,101804.23
2024-01-30T22:25:10.075Z,101805.17
2024-01-30T22:27:39.848Z,101805.95
2024-01-30T22:30:08.741Z,101805.71
2024-01-30T22:32:37.937Z,101810.11
2024-01-30T22:35:11.757Z,101813.15
2024-01-30T22:37:41.171Z,101811.95
2024-01-30T22:40:10.166Z,101815.62
2024-01-30T22:42:38.334Z,101816.89
2024-01-30T22:45:07.345Z,101813.91
2024-01-30T22:47:35.429Z,101811.28
2024-01-30T22:50:05.456Z,101812.02
2024-01-30T22:52:33.704Z,101809.54
2024-01-30T22:55:03.171Z,101809.30
2024-01-30T22:57:33.284Z,101805.04
2024-01-30T23:00:02.554Z,101804.89
2024-01-30T23:02:30.795Z,101806.81
2024-01-30T23:04:59.143Z,101803.66
2024-01-30T23:07:28.654Z,101803.83
2024-01-30T23:09:57.251Z,101789.41
2024-01-30T23:12:25.706Z,101740.95
2024-01-30T23:14:53.974Z,101740.16
2024-01-30T23:17:22.632Z,101735.34
2024-01-30T23:19:51.010Z,101735.41
2024-01-30T23:22:19.347Z,101733.69
2024-01-30T23:24:47.422Z,101735.13
2024-01-30T23:27:16.377Z,101734.17
2024-01-30T23:29:44.504Z,101732.79
2024-01-30T23:32:17.153Z,101730.55
2024-01-30T23:34:50.372Z,101733.02
2024-01-30T23:37:20.415Z,101733.98
2024-01-30T23:39:50.982Z,101734.77
2024-01-30T23:42:19.564Z,101734.83
2024-01-30T23:44:47.769Z,101733.38
2024-01-30T23:47:16.060Z,101727.42
2024-01-30T23:49:44.392Z,101732.67
2024-01-30T23:52:12.605Z,101731.71
2024-01-30T23:54:40.840Z,101729.56
2024-01-30T23:57:09.212Z,101729.34
2024-01-30T23:59:38.010Z,101725.86
